sensor_id;sensor_type;location;lat;lon;timestamp;temperature;humidity
15143;DHT22;7672;50.834;6.286;2023-04-15T00:01:50;9.00;99.90
15143;DHT22;7672;50.834;6.286;2023-04-15T00:04:17;9.00;99.90
15143;DHT22;7672;50.834;6.286;2023-04-15T00:06:49;9.00;99.90
15143;DHT22;7672;50.834;6.286;2023-04-15T00:09:19;9.00;99.90
15143;DHT22;7672;50.834;6.286;2023-04-15T00:11:46;8.90;99.90
15143;DHT22;7672;50.834;6.286;2023-04-15T00:14:13;8.90;99.90
15143;DHT22;7672;50.834;6.286;2023-04-15T00:16:40;8.90;99.90
15143;DHT22;7672;50.834;6.286;2023-04-15T00:19:07;8.90;99.90
15143;DHT22;7672;50.834;6.286;2023-04-15T00:21:34;8.90;99.90
15143;DHT22;7672;50.834;6.286;2023-04-15T00:24:01;9.00;99.90
15143;DHT22;7672;50.834;6.286;2023-04-15T00:26:28;8.80;99.90
15143;DHT22;7672;50.834;6.286;2023-04-15T00:28:54;8.80;99.90
15143;DHT22;7672;50.834;6.286;2023-04-15T00:31:21;8.70;99.90
15143;DHT22;7672;50.834;6.286;2023-04-15T00:33:48;8.70;99.90
15143;DHT22;7672;50.834;6.286;2023-04-15T00:36:15;8.70;99.90
15143;DHT22;7672;50.834;6.286;2023-04-15T00:38:42;8.70;99.90
15143;DHT22;7672;50.834;6.286;2023-04-15T00:41:09;8.70;99.90
15143;DHT22;7672;50.834;6.286;2023-04-15T00:43:36;8.70;99.90
15143;DHT22;7672;50.834;6.286;2023-04-15T00:46:04;8.70;99.90
15143;DHT22;7672;50.834;6.286;2023-04-15T00:48:32;8.70;99.90
15143;DHT22;7672;50.834;6.286;2023-04-15T00:50:58;8.60;99.90
15143;DHT22;7672;50.834;6.286;2023-04-15T00:53:25;8.60;99.90
15143;DHT22;7672;50.834;6.286;2023-04-15T00:55:53;8.60;99.90
15143;DHT22;7672;50.834;6.286;2023-04-15T00:58:19;8.60;99.90
15143;DHT22;7672;50.834;6.286;2023-04-15T01:00:46;8.60;99.90
15143;DHT22;7672;50.834;6.286;2023-04-15T01:03:14;8.60;99.90
15143;DHT22;7672;50.834;6.286;2023-04-15T01:05:41;8.60;99.90
15143;DHT22;7672;50.834;6.286;2023-04-15T01:08:08;8.60;99.90
15143;DHT22;7672;50.834;6.286;2023-04-15T01:10:35;8.60;99.90
15143;DHT22;7672;50.834;6.286;2023-04-15T01:13:03;8.50;99.90
15143;DHT22;7672;50.834;6.286;2023-04-15T01:15:30;8.50;99.90
15143;DHT22;7672;50.834;6.286;2023-04-15T01:18:01;8.50;99.90
15143;DHT22;7672;50.834;6.286;2023-04-15T01:20:28;8.50;99.90
15143;DHT22;7672;50.834;6.286;2023-04-15T01:22:55;8.50;99.90
15143;DHT22;7672;50.834;6.286;2023-04-15T01:25:32;8.50;99.90
15143;DHT22;7672;50.834;6.286;2023-04-15T01:28:00;8.40;99.90
15143;DHT22;7672;50.834;6.286;2023-04-15T01:30:27;8.40;99.90
15143;DHT22;7672;50.834;6.286;2023-04-15T01:32:54;8.50;99.90
15143;DHT22;7672;50.834;6.286;2023-04-15T01:35:21;8.40;99.90
15143;DHT22;7672;50.834;6.286;2023-04-15T01:37:49;8.40;99.90
15143;DHT22;7672;50.834;6.286;2023-04-15T01:40:16;8.40;99.90
15143;DHT22;7672;50.834;6.286;2023-04-15T01:42:43;8.40;99.90
15143;DHT22;7672;50.834;6.286;2023-04-15T01:45:10;8.40;99.90
15143;DHT22;7672;50.834;6.286;2023-04-15T01:47:37;8.40;99.90
15143;DHT22;7672;50.834;6.286;2023-04-15T01:50:05;8.50;99.90
15143;DHT22;7672;50.834;6.286;2023-04-15T01:52:32;8.40;99.90
15143;DHT22;7672;50.834;6.286;2023-04-15T01:54:59;8.40;99.90
15143;DHT22;7672;50.834;6.286;2023-04-15T01:57:26;8.40;99.90
15143;DHT22;7672;50.834;6.286;2023-04-15T01:59:52;8.50;99.90
15143;DHT22;7672;50.834;6.286;2023-04-15T02:02:19;8.40;99.90
15143;DHT22;7672;50.834;6.286;2023-04-15T02:04:46;8.40;99.90
15143;DHT22;7672;50.834;6.286;2023-04-15T02:07:13;8.40;99.90
15143;DHT22;7672;50.834;6.286;2023-04-15T02:09:40;8.30;99.90
15143;DHT22;7672;50.834;6.286;2023-04-15T02:12:06;8.30;99.90
15143;DHT22;7672;50.834;6.286;2023-04-15T02:14:33;8.30;99.90
15143;DHT22;7672;50.834;6.286;2023-04-15T02:17:00;8.20;99.90
15143;DHT22;7672;50.834;6.286;2023-04-15T02:19:33;8.20;99.90
15143;DHT22;7672;50.834;6.286;2023-04-15T02:22:00;8.10;99.90
15143;DHT22;7672;50.834;6.286;2023-04-15T02:24:30;8.10;99.90
15143;DHT22;7672;50.834;6.286;2023-04-15T02:26:57;8.00;99.90
15143;DHT22;7672;50.834;6.286;2023-04-15T02:29:23;7.90;99.90
15143;DHT22;7672;50.834;6.286;2023-04-15T02:31:50;7.90;99.90
15143;DHT22;7672;50.834;6.286;2023-04-15T02:34:17;7.90;99.90
15143;DHT22;7672;50.834;6.286;2023-04-15T02:36:44;7.80;99.90
15143;DHT22;7672;50.834;6.286;2023-04-15T02:39:12;7.80;99.90
15143;DHT22;7672;50.834;6.286;2023-04-15T02:41:42;7.80;99.90
15143;DHT22;7672;50.834;6.286;2023-04-15T02:44:09;7.80;99.90
15143;DHT22;7672;50.834;6.286;2023-04-15T02:46:38;7.80;99.90
15143;DHT22;7672;50.834;6.286;2023-04-15T02:49:06;7.80;99.90
15143;DHT22;7672;50.834;6.286;2023-04-15T02:51:33;7.80;99.90
15143;DHT22;7672;50.834;6.286;2023-04-15T02:54:00;8.10;99.90
15143;DHT22;7672;50.834;6.286;2023-04-15T02:56:27;7.80;99.90
15143;DHT22;7672;50.834;6.286;2023-04-15T02:58:55;7.80;99.90
15143;DHT22;7672;50.834;6.286;2023-04-15T03:01:22;7.70;99.90
15143;DHT22;7672;50.834;6.286;2023-04-15T03:03:49;7.70;99.90
15143;DHT22;7672;50.834;6.286;2023-04-15T03:06:16;7.70;99.90
15143;DHT22;7672;50.834;6.286;2023-04-15T03:08:43;7.70;99.90
15143;DHT22;7672;50.834;6.286;2023-04-15T03:11:10;7.70;99.90
15143;DHT22;7672;50.834;6.286;2023-04-15T03:13:38;7.60;99.90
15143;DHT22;7672;50.834;6.286;2023-04-15T03:16:07;7.60;99.90
15143;DHT22;7672;50.834;6.286;2023-04-15T03:18:34;7.60;99.90
15143;DHT22;7672;50.834;6.286;2023-04-15T03:21:01;7.60;99.90
15143;DHT22;7672;50.834;6.286;2023-04-15T03:23:30;7.50;99.90
15143;DHT22;7672;50.834;6.286;2023-04-15T03:26:00;7.50;99.90
15143;DHT22;7672;50.834;6.286;2023-04-15T03:28:27;7.40;99.90
15143;DHT22;7672;50.834;6.286;2023-04-15T03:30:55;7.40;99.90
15143;DHT22;7672;50.834;6.286;2023-04-15T03:33:22;7.40;99.90
15143;DHT22;7672;50.834;6.286;2023-04-15T03:35:50;7.30;99.90
15143;DHT22;7672;50.834;6.286;2023-04-15T03:38:17;7.30;99.90
15143;DHT22;7672;50.834;6.286;2023-04-15T03:40:45;7.20;99.90
15143;DHT22;7672;50.834;6.286;2023-04-15T03:43:12;7.20;99.90
15143;DHT22;7672;50.834;6.286;2023-04-15T03:45:39;7.10;99.90
15143;DHT22;7672;50.834;6.286;2023-04-15T03:48:06;7.10;99.90
15143;DHT22;7672;50.834;6.286;2023-04-15T03:50:43;7.00;99.90
15143;DHT22;7672;50.834;6.286;2023-04-15T03:53:11;7.00;99.90
15143;DHT22;7672;50.834;6.286;2023-04-15T03:55:38;6.90;99.90
15143;DHT22;7672;50.834;6.286;2023-04-15T03:58:05;6.90;99.90
15143;DHT22;7672;50.834;6.286;2023-04-15T04:00:32;6.90;99.90
15143;DHT22;7672;50.834;6.286;2023-04-15T04:02:59;6.90;99.90
15143;DHT22;7672;50.834;6.286;2023-04-15T04:05:26;6.90;99.90
15143;DHT22;7672;50.834;6.286;2023-04-15T04:07:53;6.80;99.90
15143;DHT22;7672;50.834;6.286;2023-04-15T04:10:19;6.80;99.90
15143;DHT22;7672;50.834;6.286;2023-04-15T04:12:46;6.80;99.90
15143;DHT22;7672;50.834;6.286;2023-04-15T04:15:13;6.90;99.90
15143;DHT22;7672;50.834;6.286;2023-04-15T04:17:40;6.90;99.90
15143;DHT22;7672;50.834;6.286;2023-04-15T04:20:07;6.90;99.90
15143;DHT22;7672;50.834;6.286;2023-04-15T04:22:38;6.90;99.90
15143;DHT22;7672;50.834;6.286;2023-04-15T04:25:06;6.90;99.90
15143;DHT22;7672;50.834;6.286;2023-04-15T04:27:34;6.90;99.90
15143;DHT22;7672;50.834;6.286;2023-04-15T04:30:00;6.90;99.90
15143;DHT22;7672;50.834;6.286;2023-04-15T04:32:27;6.90;99.90
15143;DHT22;7672;50.834;6.286;2023-04-15T04:34:54;6.90;99.90
15143;DHT22;7672;50.834;6.286;2023-04-15T04:37:21;6.90;99.90
15143;DHT22;7672;50.834;6.286;2023-04-15T04:39:49;7.00;99.90
15143;DHT22;7672;50.834;6.286;2023-04-15T04:42:16;7.00;99.90
15143;DHT22;7672;50.834;6.286;2023-04-15T04:44:42;7.00;99.90
15143;DHT22;7672;50.834;6.286;2023-04-15T04:47:09;7.00;99.90
15143;DHT22;7672;50.834;6.286;2023-04-15T04:49:36;7.10;99.90
15143;DHT22;7672;50.834;6.286;2023-04-15T04:52:03;7.10;99.90
15143;DHT22;7672;50.834;6.286;2023-04-15T04:54:30;7.10;99.90
15143;DHT22;7672;50.834;6.286;2023-04-15T04:56:57;7.10;99.90
15143;DHT22;7672;50.834;6.286;2023-04-15T04:59:24;7.10;99.90
15143;DHT22;7672;50.834;6.286;2023-04-15T05:01:50;7.10;99.90
15143;DHT22;7672;50.834;6.286;2023-04-15T05:04:18;7.10;99.90
15143;DHT22;7672;50.834;6.286;2023-04-15T05:06:44;7.10;99.90
15143;DHT22;7672;50.834;6.286;2023-04-15T05:09:11;7.10;99.90
15143;DHT22;7672;50.834;6.286;2023-04-15T05:11:38;7.00;99.90
15143;DHT22;7672;50.834;6.286;2023-04-15T05:14:05;7.10;99.90
15143;DHT22;7672;50.834;6.286;2023-04-15T05:16:32;7.00;99.90
15143;DHT22;7672;50.834;6.286;2023-04-15T05:18:59;7.10;99.90
15143;DHT22;7672;50.834;6.286;2023-04-15T05:21:26;7.10;99.90
15143;DHT22;7672;50.834;6.286;2023-04-15T05:23:53;7.10;99.90
15143;DHT22;7672;50.834;6.286;2023-04-15T05:26:19;7.20;99.90
15143;DHT22;7672;50.834;6.286;2023-04-15T05:28:47;7.30;99.90
15143;DHT22;7672;50.834;6.286;2023-04-15T05:31:15;7.40;99.90
15143;DHT22;7672;50.834;6.286;2023-04-15T05:33:42;7.40;99.90
15143;DHT22;7672;50.834;6.286;2023-04-15T05:36:09;7.50;99.90
15143;DHT22;7672;50.834;6.286;2023-04-15T05:38:35;7.70;99.90
15143;DHT22;7672;50.834;6.286;2023-04-15T05:41:02;7.80;99.90
15143;DHT22;7672;50.834;6.286;2023-04-15T05:43:29;7.90;99.90
15143;DHT22;7672;50.834;6.286;2023-04-15T05:45:56;8.10;99.90
15143;DHT22;7672;50.834;6.286;2023-04-15T05:48:23;8.30;99.90
15143;DHT22;7672;50.834;6.286;2023-04-15T05:50:50;8.50;99.90
15143;DHT22;7672;50.834;6.286;2023-04-15T05:53:17;8.60;99.90
15143;DHT22;7672;50.834;6.286;2023-04-15T05:55:43;8.90;99.90
15143;DHT22;7672;50.834;6.286;2023-04-15T05:58:10;9.10;99.90
15143;DHT22;7672;50.834;6.286;2023-04-15T06:00:37;9.30;99.90
15143;DHT22;7672;50.834;6.286;2023-04-15T06:03:05;9.60;99.90
15143;DHT22;7672;50.834;6.286;2023-04-15T06:05:33;9.80;99.90
15143;DHT22;7672;50.834;6.286;2023-04-15T06:08:00;10.00;99.90
15143;DHT22;7672;50.834;6.286;2023-04-15T06:10:27;10.10;99.90
15143;DHT22;7672;50.834;6.286;2023-04-15T06:12:54;10.30;99.90
15143;DHT22;7672;50.834;6.286;2023-04-15T06:15:20;10.40;99.90
15143;DHT22;7672;50.834;6.286;2023-04-15T06:17:48;10.50;99.90
15143;DHT22;7672;50.834;6.286;2023-04-15T06:20:15;10.50;99.90
15143;DHT22;7672;50.834;6.286;2023-04-15T06:22:42;10.60;99.90
15143;DHT22;7672;50.834;6.286;2023-04-15T06:25:09;10.70;99.90
15143;DHT22;7672;50.834;6.286;2023-04-15T06:27:36;10.80;99.90
15143;DHT22;7672;50.834;6.286;2023-04-15T06:30:04;11.00;99.90
15143;DHT22;7672;50.834;6.286;2023-04-15T06:32:32;11.10;99.90
15143;DHT22;7672;50.834;6.286;2023-04-15T06:34:58;11.20;99.90
15143;DHT22;7672;50.834;6.286;2023-04-15T06:37:25;11.40;99.90
15143;DHT22;7672;50.834;6.286;2023-04-15T06:39:52;11.60;99.90
15143;DHT22;7672;50.834;6.286;2023-04-15T06:42:19;11.80;99.90
15143;DHT22;7672;50.834;6.286;2023-04-15T06:44:45;12.00;99.90
15143;DHT22;7672;50.834;6.286;2023-04-15T06:47:12;12.30;99.90
15143;DHT22;7672;50.834;6.286;2023-04-15T06:49:40;12.50;99.90
15143;DHT22;7672;50.834;6.286;2023-04-15T06:52:09;12.70;99.90
15143;DHT22;7672;50.834;6.286;2023-04-15T06:54:36;13.00;99.90
15143;DHT22;7672;50.834;6.286;2023-04-15T06:57:03;13.20;99.90
15143;DHT22;7672;50.834;6.286;2023-04-15T06:59:30;13.50;99.90
15143;DHT22;7672;50.834;6.286;2023-04-15T07:01:57;13.90;99.90
15143;DHT22;7672;50.834;6.286;2023-04-15T07:04:24;14.20;99.90
15143;DHT22;7672;50.834;6.286;2023-04-15T07:06:51;14.60;99.90
15143;DHT22;7672;50.834;6.286;2023-04-15T07:09:17;15.00;99.90
15143;DHT22;7672;50.834;6.286;2023-04-15T07:11:45;15.40;99.90
15143;DHT22;7672;50.834;6.286;2023-04-15T07:14:12;15.70;99.90
15143;DHT22;7672;50.834;6.286;2023-04-15T07:16:38;16.00;99.90
15143;DHT22;7672;50.834;6.286;2023-04-15T07:19:05;16.30;99.90
15143;DHT22;7672;50.834;6.286;2023-04-15T07:21:32;16.60;99.90
15143;DHT22;7672;50.834;6.286;2023-04-15T07:23:59;16.70;99.90
15143;DHT22;7672;50.834;6.286;2023-04-15T07:26:26;16.80;99.90
15143;DHT22;7672;50.834;6.286;2023-04-15T07:28:52;16.80;99.90
15143;DHT22;7672;50.834;6.286;2023-04-15T07:31:19;16.70;99.90
15143;DHT22;7672;50.834;6.286;2023-04-15T07:33:46;16.70;99.90
15143;DHT22;7672;50.834;6.286;2023-04-15T07:36:13;16.70;99.90
15143;DHT22;7672;50.834;6.286;2023-04-15T07:38:40;16.70;99.90
15143;DHT22;7672;50.834;6.286;2023-04-15T07:41:08;16.80;99.90
15143;DHT22;7672;50.834;6.286;2023-04-15T07:43:34;17.00;99.90
15143;DHT22;7672;50.834;6.286;2023-04-15T07:46:01;17.10;99.90
15143;DHT22;7672;50.834;6.286;2023-04-15T07:48:28;17.30;99.90
15143;DHT22;7672;50.834;6.286;2023-04-15T07:50:55;17.40;99.90
15143;DHT22;7672;50.834;6.286;2023-04-15T07:53:21;17.50;99.90
15143;DHT22;7672;50.834;6.286;2023-04-15T07:55:48;17.70;99.90
15143;DHT22;7672;50.834;6.286;2023-04-15T07:58:15;17.80;99.90
15143;DHT22;7672;50.834;6.286;2023-04-15T08:00:42;17.90;99.90
15143;DHT22;7672;50.834;6.286;2023-04-15T08:03:10;18.10;99.90
15143;DHT22;7672;50.834;6.286;2023-04-15T08:05:37;18.20;99.90
15143;DHT22;7672;50.834;6.286;2023-04-15T08:08:04;18.40;99.90
15143;DHT22;7672;50.834;6.286;2023-04-15T08:10:30;18.70;99.90
15143;DHT22;7672;50.834;6.286;2023-04-15T08:12:57;19.10;99.90
15143;DHT22;7672;50.834;6.286;2023-04-15T08:15:25;19.40;99.90
15143;DHT22;7672;50.834;6.286;2023-04-15T08:17:52;19.80;99.90
15143;DHT22;7672;50.834;6.286;2023-04-15T08:20:18;20.00;99.90
15143;DHT22;7672;50.834;6.286;2023-04-15T08:22:46;20.30;99.90
15143;DHT22;7672;50.834;6.286;2023-04-15T08:25:17;20.50;99.90
15143;DHT22;7672;50.834;6.286;2023-04-15T08:27:45;20.70;99.90
15143;DHT22;7672;50.834;6.286;2023-04-15T08:30:12;20.90;99.90
15143;DHT22;7672;50.834;6.286;2023-04-15T08:32:40;21.00;99.90
15143;DHT22;7672;50.834;6.286;2023-04-15T08:35:08;21.20;99.90
15143;DHT22;7672;50.834;6.286;2023-04-15T08:37:35;21.30;99.90
15143;DHT22;7672;50.834;6.286;2023-04-15T08:40:03;21.30;99.90
15143;DHT22;7672;50.834;6.286;2023-04-15T08:42:31;21.40;99.90
15143;DHT22;7672;50.834;6.286;2023-04-15T08:45:09;21.40;99.90
15143;DHT22;7672;50.834;6.286;2023-04-15T08:47:39;21.40;99.90
15143;DHT22;7672;50.834;6.286;2023-04-15T08:50:08;21.40;99.90
15143;DHT22;7672;50.834;6.286;2023-04-15T08:52:36;21.60;99.90
15143;DHT22;7672;50.834;6.286;2023-04-15T08:55:03;21.60;99.30
15143;DHT22;7672;50.834;6.286;2023-04-15T08:57:32;21.50;98.70
15143;DHT22;7672;50.834;6.286;2023-04-15T09:00:01;21.50;99.90
15143;DHT22;7672;50.834;6.286;2023-04-15T09:02:31;21.30;99.60
15143;DHT22;7672;50.834;6.286;2023-04-15T09:04:58;21.30;99.90
15143;DHT22;7672;50.834;6.286;2023-04-15T09:07:25;21.40;99.90
15143;DHT22;7672;50.834;6.286;2023-04-15T09:09:52;21.50;99.90
15143;DHT22;7672;50.834;6.286;2023-04-15T09:12:19;21.60;99.90
15143;DHT22;7672;50.834;6.286;2023-04-15T09:14:46;21.70;99.90
15143;DHT22;7672;50.834;6.286;2023-04-15T09:17:18;21.80;99.00
15143;DHT22;7672;50.834;6.286;2023-04-15T09:20:07;21.90;98.60
15143;DHT22;7672;50.834;6.286;2023-04-15T09:22:40;22.00;99.20
15143;DHT22;7672;50.834;6.286;2023-04-15T09:28:00;22.10;98.00
15143;DHT22;7672;50.834;6.286;2023-04-15T09:30:28;22.10;97.40
15143;DHT22;7672;50.834;6.286;2023-04-15T09:33:00;22.10;98.30
15143;DHT22;7672;50.834;6.286;2023-04-15T09:35:28;22.20;97.80
15143;DHT22;7672;50.834;6.286;2023-04-15T09:38:06;22.20;98.80
15143;DHT22;7672;50.834;6.286;2023-04-15T09:40:36;22.30;99.70
15143;DHT22;7672;50.834;6.286;2023-04-15T09:43:08;22.50;98.30
15143;DHT22;7672;50.834;6.286;2023-04-15T09:45:40;22.60;96.20
15143;DHT22;7672;50.834;6.286;2023-04-15T09:48:21;22.60;97.30
15143;DHT22;7672;50.834;6.286;2023-04-15T09:50:50;22.70;97.10
15143;DHT22;7672;50.834;6.286;2023-04-15T09:53:20;22.70;96.00
15143;DHT22;7672;50.834;6.286;2023-04-15T09:55:51;22.80;95.10
15143;DHT22;7672;50.834;6.286;2023-04-15T09:58:31;22.70;95.60
15143;DHT22;7672;50.834;6.286;2023-04-15T10:01:02;22.70;95.70
15143;DHT22;7672;50.834;6.286;2023-04-15T10:03:34;22.80;95.30
15143;DHT22;7672;50.834;6.286;2023-04-15T10:06:04;22.70;94.20
15143;DHT22;7672;50.834;6.286;2023-04-15T10:08:32;22.90;95.30
15143;DHT22;7672;50.834;6.286;2023-04-15T10:11:01;22.90;92.80
15143;DHT22;7672;50.834;6.286;2023-04-15T10:13:30;22.70;92.80
15143;DHT22;7672;50.834;6.286;2023-04-15T10:16:14;22.60;91.90
15143;DHT22;7672;50.834;6.286;2023-04-15T10:18:43;22.40;92.70
15143;DHT22;7672;50.834;6.286;2023-04-15T10:21:17;22.20;93.90
15143;DHT22;7672;50.834;6.286;2023-04-15T10:23:45;22.00;93.40
15143;DHT22;7672;50.834;6.286;2023-04-15T10:26:14;21.80;92.90
15143;DHT22;7672;50.834;6.286;2023-04-15T10:28:46;21.50;93.30
15143;DHT22;7672;50.834;6.286;2023-04-15T10:31:14;21.20;93.60
15143;DHT22;7672;50.834;6.286;2023-04-15T10:33:43;20.90;95.90
15143;DHT22;7672;50.834;6.286;2023-04-15T10:36:11;20.60;95.90
15143;DHT22;7672;50.834;6.286;2023-04-15T10:38:40;20.60;96.60
15143;DHT22;7672;50.834;6.286;2023-04-15T10:41:25;20.20;96.60
15143;DHT22;7672;50.834;6.286;2023-04-15T10:44:00;20.00;97.20
15143;DHT22;7672;50.834;6.286;2023-04-15T10:46:39;19.80;97.60
15143;DHT22;7672;50.834;6.286;2023-04-15T10:49:12;19.70;97.00
15143;DHT22;7672;50.834;6.286;2023-04-15T10:51:57;19.50;98.30
15143;DHT22;7672;50.834;6.286;2023-04-15T10:59:35;19.20;98.40
15143;DHT22;7672;50.834;6.286;2023-04-15T11:02:07;19.10;98.40
15143;DHT22;7672;50.834;6.286;2023-04-15T11:04:56;19.00;98.00
15143;DHT22;7672;50.834;6.286;2023-04-15T11:12:57;18.60;98.50
15143;DHT22;7672;50.834;6.286;2023-04-15T11:15:32;18.60;98.30
15143;DHT22;7672;50.834;6.286;2023-04-15T11:20:35;18.80;99.90
15143;DHT22;7672;50.834;6.286;2023-04-15T11:23:03;19.00;99.90
15143;DHT22;7672;50.834;6.286;2023-04-15T11:25:41;19.30;99.90
15143;DHT22;7672;50.834;6.286;2023-04-15T11:28:11;19.60;99.90
15143;DHT22;7672;50.834;6.286;2023-04-15T11:30:39;19.50;98.80
15143;DHT22;7672;50.834;6.286;2023-04-15T11:33:11;19.70;98.10
15143;DHT22;7672;50.834;6.286;2023-04-15T11:35:41;19.70;97.30
15143;DHT22;7672;50.834;6.286;2023-04-15T11:38:09;19.70;97.40
15143;DHT22;7672;50.834;6.286;2023-04-15T11:40:39;19.70;97.90
15143;DHT22;7672;50.834;6.286;2023-04-15T11:48:17;19.80;97.50
15143;DHT22;7672;50.834;6.286;2023-04-15T11:50:45;20.00;97.50
15143;DHT22;7672;50.834;6.286;2023-04-15T11:53:12;19.90;97.60
15143;DHT22;7672;50.834;6.286;2023-04-15T11:55:51;19.70;97.90
15143;DHT22;7672;50.834;6.286;2023-04-15T11:58:23;19.70;97.50
15143;DHT22;7672;50.834;6.286;2023-04-15T12:00:58;19.70;98.40
15143;DHT22;7672;50.834;6.286;2023-04-15T12:03:30;19.60;98.40
15143;DHT22;7672;50.834;6.286;2023-04-15T12:06:15;19.50;98.40
15143;DHT22;7672;50.834;6.286;2023-04-15T12:11:40;19.50;98.90
15143;DHT22;7672;50.834;6.286;2023-04-15T12:14:30;19.50;99.90
15143;DHT22;7672;50.834;6.286;2023-04-15T12:16:59;19.50;99.60
15143;DHT22;7672;50.834;6.286;2023-04-15T12:19:40;19.50;99.80
15143;DHT22;7672;50.834;6.286;2023-04-15T12:22:10;19.40;99.70
15143;DHT22;7672;50.834;6.286;2023-04-15T12:24:38;19.40;99.90
15143;DHT22;7672;50.834;6.286;2023-04-15T12:27:07;19.40;99.00
15143;DHT22;7672;50.834;6.286;2023-04-15T12:29:38;19.30;98.40
15143;DHT22;7672;50.834;6.286;2023-04-15T12:32:09;19.30;98.50
15143;DHT22;7672;50.834;6.286;2023-04-15T12:34:49;19.30;98.20
15143;DHT22;7672;50.834;6.286;2023-04-15T12:37:17;19.30;99.10
15143;DHT22;7672;50.834;6.286;2023-04-15T12:39:46;19.30;98.90
15143;DHT22;7672;50.834;6.286;2023-04-15T12:42:15;19.40;99.90
15143;DHT22;7672;50.834;6.286;2023-04-15T12:44:42;19.40;99.70
15143;DHT22;7672;50.834;6.286;2023-04-15T12:47:11;19.50;99.50
15143;DHT22;7672;50.834;6.286;2023-04-15T12:49:39;19.50;99.30
15143;DHT22;7672;50.834;6.286;2023-04-15T12:52:06;19.60;99.90
15143;DHT22;7672;50.834;6.286;2023-04-15T12:54:33;19.60;99.10
15143;DHT22;7672;50.834;6.286;2023-04-15T12:57:01;19.70;99.90
15143;DHT22;7672;50.834;6.286;2023-04-15T12:59:32;19.70;99.10
15143;DHT22;7672;50.834;6.286;2023-04-15T13:01:58;19.70;98.40
15143;DHT22;7672;50.834;6.286;2023-04-15T13:04:26;19.60;97.40
15143;DHT22;7672;50.834;6.286;2023-04-15T13:06:56;19.60;98.80
15143;DHT22;7672;50.834;6.286;2023-04-15T13:09:23;19.60;98.30
15143;DHT22;7672;50.834;6.286;2023-04-15T13:11:49;19.50;97.60
15143;DHT22;7672;50.834;6.286;2023-04-15T13:14:16;19.50;97.90
15143;DHT22;7672;50.834;6.286;2023-04-15T13:16:43;19.40;98.40
15143;DHT22;7672;50.834;6.286;2023-04-15T13:19:10;19.40;98.00
15143;DHT22;7672;50.834;6.286;2023-04-15T13:21:36;19.40;98.00
15143;DHT22;7672;50.834;6.286;2023-04-15T13:24:03;19.50;98.10
15143;DHT22;7672;50.834;6.286;2023-04-15T13:26:32;19.50;98.60
15143;DHT22;7672;50.834;6.286;2023-04-15T13:29:00;19.40;98.50
15143;DHT22;7672;50.834;6.286;2023-04-15T13:31:27;19.30;98.10
15143;DHT22;7672;50.834;6.286;2023-04-15T13:33:55;19.10;99.30
15143;DHT22;7672;50.834;6.286;2023-04-15T13:36:22;19.00;99.90
15143;DHT22;7672;50.834;6.286;2023-04-15T13:38:49;18.80;99.40
15143;DHT22;7672;50.834;6.286;2023-04-15T13:41:17;18.60;99.90
15143;DHT22;7672;50.834;6.286;2023-04-15T13:43:44;18.50;99.90
15143;DHT22;7672;50.834;6.286;2023-04-15T13:46:11;18.40;99.90
15143;DHT22;7672;50.834;6.286;2023-04-15T13:48:37;18.30;99.90
15143;DHT22;7672;50.834;6.286;2023-04-15T13:51:04;18.30;99.90
15143;DHT22;7672;50.834;6.286;2023-04-15T13:53:32;18.30;99.90
15143;DHT22;7672;50.834;6.286;2023-04-15T13:56:08;18.20;99.90
15143;DHT22;7672;50.834;6.286;2023-04-15T13:58:39;18.10;99.90
15143;DHT22;7672;50.834;6.286;2023-04-15T14:01:06;18.60;99.90
15143;DHT22;7672;50.834;6.286;2023-04-15T14:03:33;18.00;99.90
15143;DHT22;7672;50.834;6.286;2023-04-15T14:06:03;17.90;99.90
15143;DHT22;7672;50.834;6.286;2023-04-15T14:08:30;17.80;99.90
15143;DHT22;7672;50.834;6.286;2023-04-15T14:10:57;17.80;99.90
15143;DHT22;7672;50.834;6.286;2023-04-15T14:13:24;17.70;99.90
15143;DHT22;7672;50.834;6.286;2023-04-15T14:15:51;17.60;99.90
15143;DHT22;7672;50.834;6.286;2023-04-15T14:18:17;17.50;99.90
15143;DHT22;7672;50.834;6.286;2023-04-15T14:20:44;17.40;99.90
15143;DHT22;7672;50.834;6.286;2023-04-15T14:23:11;17.30;99.90
15143;DHT22;7672;50.834;6.286;2023-04-15T14:25:38;17.20;99.90
15143;DHT22;7672;50.834;6.286;2023-04-15T14:28:05;17.10;99.90
15143;DHT22;7672;50.834;6.286;2023-04-15T14:30:32;17.10;99.90
15143;DHT22;7672;50.834;6.286;2023-04-15T14:32:59;17.00;99.90
15143;DHT22;7672;50.834;6.286;2023-04-15T14:35:25;16.90;99.90
15143;DHT22;7672;50.834;6.286;2023-04-15T14:37:53;16.90;99.90
15143;DHT22;7672;50.834;6.286;2023-04-15T14:40:21;16.90;99.90
15143;DHT22;7672;50.834;6.286;2023-04-15T14:42:48;16.90;99.90
15143;DHT22;7672;50.834;6.286;2023-04-15T14:45:15;16.90;99.90
15143;DHT22;7672;50.834;6.286;2023-04-15T14:47:43;17.00;99.90
15143;DHT22;7672;50.834;6.286;2023-04-15T14:50:10;17.00;99.90
15143;DHT22;7672;50.834;6.286;2023-04-15T14:52:36;17.00;99.90
15143;DHT22;7672;50.834;6.286;2023-04-15T14:55:10;17.00;99.90
15143;DHT22;7672;50.834;6.286;2023-04-15T14:57:39;17.00;99.90
15143;DHT22;7672;50.834;6.286;2023-04-15T15:00:08;17.00;99.90
15143;DHT22;7672;50.834;6.286;2023-04-15T15:02:39;17.00;99.90
15143;DHT22;7672;50.834;6.286;2023-04-15T15:05:09;17.10;99.90
15143;DHT22;7672;50.834;6.286;2023-04-15T15:07:37;17.10;99.90
15143;DHT22;7672;50.834;6.286;2023-04-15T15:10:05;17.20;99.90
15143;DHT22;7672;50.834;6.286;2023-04-15T15:12:32;17.20;99.90
15143;DHT22;7672;50.834;6.286;2023-04-15T15:14:59;17.30;99.90
15143;DHT22;7672;50.834;6.286;2023-04-15T15:17:30;17.30;99.90
15143;DHT22;7672;50.834;6.286;2023-04-15T15:19:57;17.40;99.90
15143;DHT22;7672;50.834;6.286;2023-04-15T15:22:24;17.50;99.90
15143;DHT22;7672;50.834;6.286;2023-04-15T15:24:51;17.50;99.90
15143;DHT22;7672;50.834;6.286;2023-04-15T15:27:19;17.50;99.90
15143;DHT22;7672;50.834;6.286;2023-04-15T15:29:46;17.50;99.90
15143;DHT22;7672;50.834;6.286;2023-04-15T15:32:13;17.40;99.90
15143;DHT22;7672;50.834;6.286;2023-04-15T15:34:39;17.30;99.90
15143;DHT22;7672;50.834;6.286;2023-04-15T15:37:06;17.30;99.90
15143;DHT22;7672;50.834;6.286;2023-04-15T15:39:34;17.20;99.90
15143;DHT22;7672;50.834;6.286;2023-04-15T15:42:01;17.20;99.90
15143;DHT22;7672;50.834;6.286;2023-04-15T15:44:28;17.20;99.90
15143;DHT22;7672;50.834;6.286;2023-04-15T15:46:55;17.20;99.90
15143;DHT22;7672;50.834;6.286;2023-04-15T15:49:22;17.10;99.90
15143;DHT22;7672;50.834;6.286;2023-04-15T15:51:50;17.10;99.90
15143;DHT22;7672;50.834;6.286;2023-04-15T15:54:17;17.00;99.90
15143;DHT22;7672;50.834;6.286;2023-04-15T15:56:44;16.90;99.90
15143;DHT22;7672;50.834;6.286;2023-04-15T15:59:10;16.80;99.90
15143;DHT22;7672;50.834;6.286;2023-04-15T16:01:37;16.70;99.90
15143;DHT22;7672;50.834;6.286;2023-04-15T16:04:04;16.60;99.90
15143;DHT22;7672;50.834;6.286;2023-04-15T16:06:31;16.60;99.90
15143;DHT22;7672;50.834;6.286;2023-04-15T16:09:00;16.50;99.90
15143;DHT22;7672;50.834;6.286;2023-04-15T16:11:28;16.50;99.90
15143;DHT22;7672;50.834;6.286;2023-04-15T16:13:55;16.50;99.90
15143;DHT22;7672;50.834;6.286;2023-04-15T16:16:22;16.50;99.90
15143;DHT22;7672;50.834;6.286;2023-04-15T16:18:49;16.50;99.90
15143;DHT22;7672;50.834;6.286;2023-04-15T16:21:16;16.40;99.90
15143;DHT22;7672;50.834;6.286;2023-04-15T16:23:43;16.40;99.90